createdAt,value
2022-10-18T00:02:22.666Z,101081.09
2022-10-18T00:04:51.239Z,101074.22
2022-10-18T00:07:19.884Z,101069.75
2022-10-18T00:09:48.436Z,101068.41
2022-10-18T00:12:17.355Z,101071.72
2022-10-18T00:14:50.462Z,101078.44
2022-10-18T00:17:19.319Z,101071.06
2022-10-18T00:19:48.921Z,101071.22
2022-10-18T00:22:17.439Z,101078.09
2022-10-18T00:24:46.050Z,101068.56
2022-10-18T00:27:15.095Z,101068.03
2022-10-18T00:29:43.658Z,101052.31
2022-10-18T00:32:14.062Z,101077.25
2022-10-18T00:34:42.483Z,101071.03
2022-10-18T00:37:10.918Z,101074.06
2022-10-18T00:39:39.439Z,101076.03
2022-10-18T00:42:07.865Z,101057.66
2022-10-18T00:45:12.705Z,101071.53
2022-10-18T00:47:43.528Z,101065.34
2022-10-18T00:50:13.539Z,101069.00
2022-10-18T00:52:45.793Z,101062.84
2022-10-18T00:55:14.955Z,101057.16
2022-10-18T00:57:45.426Z,101064.66
2022-10-18T01:00:15.089Z,101056.28
2022-10-18T01:02:47.818Z,101041.91
2022-10-18T01:05:18.535Z,101055.13
2022-10-18T01:08:02.242Z,101051.78
2022-10-18T01:10:37.149Z,101045.44
2022-10-18T01:13:20.909Z,101041.41
2022-10-18T01:15:59.771Z,101049.91
2022-10-18T01:18:36.050Z,101046.09
2022-10-18T01:21:26.685Z,101047.91
2022-10-18T01:24:21.103Z,101050.78
2022-10-18T01:27:29.351Z,101040.91
2022-10-18T01:30:32.871Z,101047.91
2022-10-18T01:33:08.425Z,101044.56
2022-10-18T01:35:41.446Z,101048.91
2022-10-18T01:38:17.493Z,101039.22
2022-10-18T01:40:48.950Z,101041.03
2022-10-18T01:43:20.375Z,101037.69
2022-10-18T01:45:51.068Z,101032.13
2022-10-18T01:48:20.138Z,101032.81
2022-10-18T01:50:49.210Z,101027.66
2022-10-18T01:53:29.600Z,101022.44
2022-10-18T01:56:20.264Z,101022.91
2022-10-18T01:58:58.573Z,101026.59
2022-10-18T02:01:43.850Z,101026.09
2022-10-18T02:04:24.505Z,101027.78
2022-10-18T02:06:59.134Z,101021.56
2022-10-18T02:09:39.849Z,101026.09
2022-10-18T02:12:12.164Z,101026.09
2022-10-18T02:14:42.936Z,101028.09
2022-10-18T02:17:13.988Z,101023.56
2022-10-18T02:19:46.159Z,101023.06
2022-10-18T02:22:18.435Z,101029.06
2022-10-18T02:24:53.547Z,101036.06
2022-10-18T02:27:23.566Z,101029.06
2022-10-18T02:29:52.591Z,101030.22
2022-10-18T02:32:32.501Z,101025.19
2022-10-18T02:35:06.394Z,101025.50
2022-10-18T02:37:36.947Z,101024.16
2022-10-18T02:40:07.919Z,101020.81
2022-10-18T02:42:38.065Z,101018.97
2022-10-18T02:45:08.375Z,101029.31
2022-10-18T02:47:38.257Z,101030.63
2022-10-18T02:50:07.401Z,101027.44
2022-10-18T02:52:35.979Z,101026.94
2022-10-18T02:55:05.191Z,101020.25
2022-10-18T02:57:33.956Z,101034.91
2022-10-18T03:00:02.701Z,101035.53
2022-10-18T03:02:31.047Z,101040.28
2022-10-18T03:05:01.067Z,101040.78
2022-10-18T03:07:29.882Z,101035.75
2022-10-18T03:09:58.535Z,101026.84
2022-10-18T03:12:26.986Z,101042.56
2022-10-18T03:14:55.460Z,101042.28
2022-10-18T03:17:23.946Z,101040.13
2022-10-18T03:19:52.492Z,101052.28
2022-10-18T03:22:22.553Z,101043.41
2022-10-18T03:24:51.008Z,101044.72
2022-10-18T03:27:19.385Z,101055.06
2022-10-18T03:29:47.751Z,101060.84
2022-10-18T03:32:16.118Z,101062.16
2022-10-18T03:34:44.501Z,101067.78
2022-10-18T03:37:12.950Z,101061.09
2022-10-18T03:39:42.882Z,101063.25
2022-10-18T03:42:11.427Z,101067.03
2022-10-18T03:44:39.810Z,101077.19
2022-10-18T03:47:08.251Z,101073.97
2022-10-18T03:49:36.790Z,101063.25
2022-10-18T03:52:05.223Z,101065.91
2022-10-18T03:54:33.739Z,101068.88
2022-10-18T03:57:03.621Z,101067.38
2022-10-18T03:59:32.045Z,101068.66
2022-10-18T04:02:00.778Z,101070.94
2022-10-18T04:04:29.290Z,101068.72
2022-10-18T04:06:57.906Z,101072.53
2022-10-18T04:09:26.344Z,101061.56
2022-10-18T04:11:54.950Z,101075.56
2022-10-18T04:14:24.822Z,101086.22
2022-10-18T04:16:53.398Z,101081.19
2022-10-18T04:19:21.822Z,101072.50
2022-10-18T04:21:50.281Z,101079.81
2022-10-18T04:24:19.153Z,101075.09
2022-10-18T04:26:47.749Z,101079.56
2022-10-18T04:29:16.347Z,101075.38
2022-10-18T04:31:46.357Z,101074.69
2022-10-18T04:34:15.049Z,101076.66
2022-10-18T04:36:43.554Z,101067.88
2022-10-18T04:39:12.014Z,101081.75
2022-10-18T04:41:40.628Z,101073.19
2022-10-18T04:44:09.199Z,101064.25
2022-10-18T04:46:37.615Z,101071.25
2022-10-18T04:49:07.915Z,101069.75
2022-10-18T04:51:36.958Z,101073.53
2022-10-18T04:54:06.245Z,101073.00
2022-10-18T04:56:35.190Z,101080.28
2022-10-18T04:59:03.678Z,101061.97
2022-10-18T05:01:32.315Z,101061.41
2022-10-18T05:04:00.876Z,101060.00
2022-10-18T05:06:30.798Z,101064.66
2022-10-18T05:08:59.385Z,101063.13
2022-10-18T05:11:27.974Z,101066.09
2022-10-18T05:13:56.462Z,101063.84
2022-10-18T05:16:24.943Z,101069.47
2022-10-18T05:18:53.414Z,101067.78
2022-10-18T05:21:22.227Z,101068.94
2022-10-18T05:23:52.249Z,101068.25
2022-10-18T05:26:20.846Z,101068.53
2022-10-18T05:28:50.733Z,101065.88
2022-10-18T05:31:19.540Z,101073.13
2022-10-18T05:33:48.241Z,101071.63
2022-10-18T05:36:16.933Z,101067.41
2022-10-18T05:38:45.823Z,101069.78
2022-10-18T05:41:16.379Z,101068.09
2022-10-18T05:43:44.884Z,101063.06
2022-10-18T05:46:15.440Z,101065.03
2022-10-18T05:48:45.303Z,101072.19
2022-10-18T05:51:14.220Z,101065.31
2022-10-18T05:53:42.969Z,101060.00
2022-10-18T05:56:12.799Z,101064.50
2022-10-18T05:58:43.027Z,101063.25
2022-10-18T06:01:12.230Z,101065.91
2022-10-18T06:03:40.712Z,101069.25
2022-10-18T06:06:11.149Z,101062.25
2022-10-18T06:08:40.738Z,101069.94
2022-10-18T06:11:10.352Z,101061.16
2022-10-18T06:13:47.573Z,101071.78
2022-10-18T06:16:18.019Z,101067.00
2022-10-18T06:18:49.797Z,101064.34
2022-10-18T06:21:19.181Z,101074.00
2022-10-18T06:23:50.608Z,101083.94
2022-10-18T06:26:19.402Z,101089.94
2022-10-18T06:28:49.640Z,101081.09
2022-10-18T06:31:18.388Z,101084.03
2022-10-18T06:33:47.465Z,101088.09
2022-10-18T06:36:17.919Z,101091.16
2022-10-18T06:38:46.689Z,101089.06
2022-10-18T06:41:15.543Z,101090.44
2022-10-18T06:43:44.843Z,101082.16
2022-10-18T06:46:15.088Z,101078.91
2022-10-18T06:48:43.662Z,101081.28
2022-10-18T06:51:12.927Z,101084.47
2022-10-18T06:53:44.537Z,101078.56
2022-10-18T06:56:28.189Z,101086.94
2022-10-18T06:58:56.670Z,101088.06
2022-10-18T07:01:28.742Z,101076.13
2022-10-18T07:03:57.708Z,101080.03
2022-10-18T07:06:26.461Z,101079.56
2022-10-18T07:08:55.246Z,101081.50
2022-10-18T07:11:25.864Z,101079.22
2022-10-18T07:13:55.600Z,101078.63
2022-10-18T07:16:25.454Z,101071.00
2022-10-18T07:18:54.215Z,101081.91
2022-10-18T07:21:24.373Z,101082.13
2022-10-18T07:23:53.844Z,101082.38
2022-10-18T07:26:24.213Z,101089.47
2022-10-18T07:28:55.809Z,101088.00
2022-10-18T07:31:27.538Z,101093.41
2022-10-18T07:33:56.432Z,101090.78
2022-10-18T07:36:25.852Z,101088.50
2022-10-18T07:38:55.259Z,101092.69
2022-10-18T07:41:24.342Z,101096.44
2022-10-18T07:43:54.169Z,101086.00
2022-10-18T07:46:23.930Z,101086.34
2022-10-18T07:48:54.005Z,101092.34
2022-10-18T07:51:22.697Z,101088.94
2022-10-18T07:53:51.296Z,101096.16
2022-10-18T07:56:22.008Z,101090.47
2022-10-18T07:58:52.977Z,101094.34
2022-10-18T08:01:22.872Z,101101.56
2022-10-18T08:03:51.679Z,101097.91
2022-10-18T08:06:22.958Z,101092.72
2022-10-18T08:08:51.499Z,101093.41
2022-10-18T08:11:22.368Z,101087.41
2022-10-18T08:13:51.141Z,101083.91
2022-10-18T08:16:22.346Z,101083.41
2022-10-18T08:18:51.148Z,101076.72
2022-10-18T08:21:22.959Z,101078.44
2022-10-18T08:23:51.875Z,101072.41
2022-10-18T08:26:22.480Z,101069.41
2022-10-18T08:29:10.247Z,101065.06
2022-10-18T08:31:40.176Z,101055.84
2022-10-18T08:34:08.766Z,101056.03
2022-10-18T08:36:39.403Z,101047.47
2022-10-18T08:39:07.998Z,101051.13
2022-10-18T08:42:02.830Z,101048.75
2022-10-18T08:44:33.877Z,101047.25
2022-10-18T08:47:05.949Z,101041.53
2022-10-18T08:49:47.090Z,101038.81
2022-10-18T08:52:26.838Z,101031.78
2022-10-18T08:55:02.401Z,101037.09
2022-10-18T08:57:33.282Z,101033.06
2022-10-18T09:00:04.147Z,101043.94
2022-10-18T09:03:05.699Z,101037.31
2022-10-18T09:05:45.266Z,101030.59
2022-10-18T09:08:42.850Z,101038.63
2022-10-18T09:11:28.495Z,101025.53
2022-10-18T09:14:29.772Z,101024.47
2022-10-18T09:17:07.327Z,101019.19
2022-10-18T09:19:55.415Z,101024.00
2022-10-18T09:22:34.428Z,101034.34
2022-10-18T09:25:13.099Z,101014.00
2022-10-18T09:27:49.906Z,101020.44
2022-10-18T09:30:27.159Z,101007.75
2022-10-18T09:33:04.484Z,101005.00
2022-10-18T09:35:37.769Z,101006.09
2022-10-18T09:38:12.107Z,100999.63
2022-10-18T09:40:54.826Z,100981.09
2022-10-18T09:43:26.361Z,100972.66
2022-10-18T09:46:01.599Z,100960.53
2022-10-18T09:48:32.541Z,100963.59
2022-10-18T09:51:05.818Z,100958.31
2022-10-18T09:53:42.079Z,100962.94
2022-10-18T09:56:16.726Z,100961.16
2022-10-18T09:58:47.035Z,100955.88
2022-10-18T10:01:19.636Z,100952.06
2022-10-18T10:03:48.229Z,100954.53
2022-10-18T10:06:24.521Z,100958.34
2022-10-18T10:09:00.229Z,100952.03
2022-10-18T10:11:32.825Z,100946.56
2022-10-18T10:14:10.564Z,100953.94
2022-10-18T10:16:46.577Z,100943.13
2022-10-18T10:19:24.983Z,100925.44
2022-10-18T10:21:58.216Z,100919.53
2022-10-18T10:24:31.580Z,100918.16
2022-10-18T10:27:04.983Z,100917.50
2022-10-18T10:30:07.881Z,100910.94
2022-10-18T10:32:47.806Z,100907.28
2022-10-18T10:38:28.369Z,100895.72
2022-10-18T10:40:57.366Z,100895.50
2022-10-18T10:43:38.248Z,100890.75
2022-10-18T10:46:10.260Z,100893.22
2022-10-18T10:48:49.121Z,100901.13
2022-10-18T10:51:29.685Z,100899.06
2022-10-18T10:54:04.509Z,100910.75
2022-10-18T10:56:35.241Z,100897.28
2022-10-18T10:59:11.874Z,100892.94
2022-10-18T11:01:40.622Z,100891.50
2022-10-18T11:04:25.915Z,100878.44
2022-10-18T11:07:02.870Z,100879.72
2022-10-18T11:10:02.777Z,100871.03
2022-10-18T11:12:35.818Z,100866.28
2022-10-18T11:15:24.920Z,100876.22
2022-10-18T11:18:06.285Z,100868.94
2022-10-18T11:20:43.095Z,100871.44
2022-10-18T11:23:30.476Z,100871.22
2022-10-18T11:26:19.225Z,100865.03
2022-10-18T11:29:03.732Z,100868.16
2022-10-18T11:31:43.429Z,100859.44
2022-10-18T11:34:29.504Z,100853.00
2022-10-18T11:37:27.231Z,100850.53
2022-10-18T11:40:10.577Z,100846.59
2022-10-18T11:42:49.621Z,100838.31
2022-10-18T11:45:31.756Z,100827.94
2022-10-18T11:48:18.425Z,100826.28
2022-10-18T11:50:52.639Z,100824.03
2022-10-18T11:53:28.728Z,100812.22
2022-10-18T11:56:07.009Z,100809.75
2022-10-18T11:58:49.408Z,100799.00
2022-10-18T12:01:28.846Z,100784.09
2022-10-18T12:04:06.466Z,100795.75
2022-10-18T12:06:38.613Z,100797.41
2022-10-18T12:09:15.820Z,100794.09
2022-10-18T12:11:55.818Z,100783.31
2022-10-18T12:14:29.333Z,100779.59
2022-10-18T12:17:35.547Z,100775.00
2022-10-18T12:19:57.427Z,100772.91
2022-10-18T12:22:33.419Z,100755.69
2022-10-18T12:25:02.885Z,100754.69
2022-10-18T12:27:40.587Z,100756.34
2022-10-18T12:30:21.766Z,100745.75
2022-10-18T12:33:03.374Z,100737.03
2022-10-18T12:35:55.682Z,100730.81
2022-10-18T12:38:28.184Z,100726.66
2022-10-18T12:40:57.091Z,100731.84
2022-10-18T12:43:28.307Z,100711.91
2022-10-18T12:45:59.427Z,100722.69
2022-10-18T12:48:38.887Z,100725.00
2022-10-18T12:51:16.539Z,100714.81
2022-10-18T12:53:46.809Z,100710.69
2022-10-18T12:56:37.060Z,100721.47
2022-10-18T12:59:51.350Z,100723.75
2022-10-18T13:02:31.198Z,100714.84
2022-10-18T13:05:01.205Z,100708.19
2022-10-18T13:07:41.621Z,100701.75
2022-10-18T13:10:39.982Z,100698.84
2022-10-18T13:13:42.060Z,100701.13
2022-10-18T13:16:25.714Z,100687.88
2022-10-18T13:18:59.833Z,100684.31
2022-10-18T13:21:43.072Z,100687.00
2022-10-18T13:24:28.510Z,100683.91
2022-10-18T13:27:34.890Z,100701.09
2022-10-18T13:30:33.296Z,100700.22
2022-10-18T13:33:27.925Z,100697.09
2022-10-18T13:36:00.871Z,100689.13
2022-10-18T13:38:38.219Z,100688.28
2022-10-18T13:41:10.784Z,100686.81
2022-10-18T13:44:20.771Z,100688.50
2022-10-18T13:47:15.251Z,100694.28
2022-10-18T13:50:04.061Z,100689.72
2022-10-18T13:52:49.410Z,100687.03
2022-10-18T13:55:35.932Z,100685.25
2022-10-18T13:58:17.145Z,100683.22
2022-10-18T14:01:00.990Z,100685.72
2022-10-18T14:04:19.795Z,100673.94
2022-10-18T14:06:49.266Z,100680.38
2022-10-18T14:09:26.467Z,100682.88
2022-10-18T14:12:16.526Z,100706.31
2022-10-18T14:14:53.011Z,100730.56
2022-10-18T14:17:36.764Z,100733.22
2022-10-18T14:20:18.830Z,100738.34
2022-10-18T14:22:52.926Z,100742.91
2022-10-18T14:25:24.779Z,100740.41
2022-10-18T14:28:08.940Z,100747.38
2022-10-18T14:30:53.674Z,100747.28
2022-10-18T14:33:44.424Z,100758.06
2022-10-18T14:36:16.099Z,100759.09
2022-10-18T14:38:51.067Z,100747.34
2022-10-18T14:41:23.332Z,100767.41
2022-10-18T14:43:53.451Z,100782.38
2022-10-18T14:46:29.066Z,100786.22
2022-10-18T14:49:01.699Z,100791.69
2022-10-18T14:51:34.681Z,100782.41
2022-10-18T14:54:03.683Z,100803.00
2022-10-18T14:56:38.168Z,100810.31
2022-10-18T14:59:13.060Z,100817.19
2022-10-18T15:01:52.574Z,100816.66
2022-10-18T15:04:26.251Z,100816.63
2022-10-18T15:06:57.436Z,100829.56
2022-10-18T15:09:26.519Z,100842.13
2022-10-18T15:11:58.068Z,100838.28
2022-10-18T15:14:28.773Z,100831.91
2022-10-18T15:17:03.146Z,100842.56
2022-10-18T15:19:34.493Z,100844.13
2022-10-18T15:25:14.707Z,100849.09
2022-10-18T15:27:46.522Z,100844.41
2022-10-18T15:30:20.384Z,100846.91
2022-10-18T15:32:53.877Z,100849.28
2022-10-18T15:35:26.754Z,100858.59
2022-10-18T15:37:57.583Z,100855.06
2022-10-18T15:40:41.522Z,100863.00
2022-10-18T15:43:38.103Z,100865.91
2022-10-18T15:46:07.653Z,100870.16
2022-10-18T15:48:40.263Z,100871.97
2022-10-18T15:51:10.500Z,100889.50
2022-10-18T15:53:53.381Z,100885.31
2022-10-18T15:56:31.347Z,100887.97
2022-10-18T15:59:04.256Z,100895.28
2022-10-18T16:01:37.462Z,100887.09
2022-10-18T16:04:24.508Z,100903.84
2022-10-18T16:06:54.467Z,100889.44
2022-10-18T16:09:24.494Z,100888.06
2022-10-18T16:11:56.956Z,100896.44
2022-10-18T16:14:27.253Z,100900.78
2022-10-18T16:17:02.774Z,100886.22
2022-10-18T16:19:33.809Z,100899.09
2022-10-18T16:22:06.587Z,100897.75
2022-10-18T16:24:38.148Z,100905.91
2022-10-18T16:27:07.282Z,100918.84
2022-10-18T16:29:35.759Z,100932.53
2022-10-18T16:32:05.204Z,100925.50
2022-10-18T16:34:35.292Z,100929.19
2022-10-18T16:37:03.910Z,100938.22
2022-10-18T16:39:35.245Z,100950.97
2022-10-18T16:42:04.049Z,100951.09
2022-10-18T16:44:32.623Z,100950.13
2022-10-18T16:47:01.251Z,100946.66
2022-10-18T16:49:29.893Z,100941.97
2022-10-18T16:52:00.320Z,100941.78
2022-10-18T16:54:28.826Z,100946.97
2022-10-18T16:56:57.637Z,100958.69
2022-10-18T16:59:29.122Z,100956.19
2022-10-18T17:01:58.065Z,100953.03
2022-10-18T17:04:26.878Z,100965.41
2022-10-18T17:06:57.734Z,100960.03
2022-10-18T17:09:27.913Z,100963.72
2022-10-18T17:11:56.550Z,100973.91
2022-10-18T17:14:25.245Z,100979.44
2022-10-18T17:16:55.950Z,100966.72
2022-10-18T17:19:24.832Z,100977.09
2022-10-18T17:21:53.421Z,100988.31
2022-10-18T17:24:22.100Z,100973.75
2022-10-18T17:26:52.019Z,100988.13
2022-10-18T17:29:20.516Z,100991.16
2022-10-18T17:31:48.992Z,100991.00
2022-10-18T17:34:27.336Z,100992.81
2022-10-18T17:36:56.298Z,101001.50
2022-10-18T17:39:24.789Z,101005.69
2022-10-18T17:41:55.664Z,101004.16
2022-10-18T17:44:24.790Z,101013.50
2022-10-18T17:46:53.280Z,101018.47
2022-10-18T17:49:22.419Z,101026.47
2022-10-18T17:51:51.291Z,101032.34
2022-10-18T17:54:20.119Z,101046.81
2022-10-18T17:56:52.354Z,101039.81
2022-10-18T17:59:24.894Z,101035.75
2022-10-18T18:01:54.907Z,101025.72
2022-10-18T18:04:24.426Z,101029.38
2022-10-18T18:06:53.139Z,101025.06
2022-10-18T18:09:21.806Z,101017.41
2022-10-18T18:11:51.667Z,101015.63
2022-10-18T18:14:20.302Z,101022.13
2022-10-18T18:16:50.307Z,101035.81
2022-10-18T18:19:19.351Z,101023.09
2022-10-18T18:21:48.238Z,101012.25
2022-10-18T18:24:17.375Z,101018.09
2022-10-18T18:26:45.991Z,101024.44
2022-10-18T18:29:14.764Z,101016.09
2022-10-18T18:31:43.700Z,101015.28
2022-10-18T18:34:14.343Z,101008.59
2022-10-18T18:36:43.361Z,101013.44
2022-10-18T18:39:19.756Z,101028.47
2022-10-18T18:41:50.023Z,101020.44
2022-10-18T18:44:19.917Z,101023.13
2022-10-18T18:46:49.062Z,101027.31
2022-10-18T18:49:19.198Z,101027.81
2022-10-18T18:51:48.777Z,101035.69
2022-10-18T18:54:17.579Z,101030.81
2022-10-18T18:56:46.531Z,101032.81
2022-10-18T18:59:15.943Z,101037.47
2022-10-18T19:01:45.517Z,101034.13
2022-10-18T19:04:14.397Z,101035.31
2022-10-18T19:06:46.158Z,101032.78
2022-10-18T19:09:19.713Z,101023.91
2022-10-18T19:11:49.722Z,101029.13
2022-10-18T19:14:18.145Z,101024.44
2022-10-18T19:16:49.400Z,101019.78
2022-10-18T19:19:19.749Z,101016.44
2022-10-18T19:21:51.891Z,101015.47
2022-10-18T19:24:20.761Z,101025.66
2022-10-18T19:26:51.249Z,101016.16
2022-10-18T19:29:22.130Z,101023.03
2022-10-18T19:31:53.357Z,101022.53
2022-10-18T19:34:24.448Z,101022.19
2022-10-18T19:36:54.958Z,101034.56
2022-10-18T19:39:25.868Z,101034.56
2022-10-18T19:41:57.204Z,101030.41
2022-10-18T19:44:28.286Z,101030.72
2022-10-18T19:46:57.384Z,101029.88
2022-10-18T19:49:26.349Z,101031.88
2022-10-18T19:51:56.676Z,101027.91
2022-10-18T19:54:25.882Z,101028.41
2022-10-18T19:56:55.375Z,101028.75
2022-10-18T19:59:24.916Z,101027.06
2022-10-18T20:01:53.305Z,101023.53
2022-10-18T20:04:21.797Z,101025.41
2022-10-18T20:06:50.744Z,101022.06
2022-10-18T20:09:21.792Z,101020.88
2022-10-18T20:11:50.384Z,101022.03
2022-10-18T20:14:18.886Z,101021.19
2022-10-18T20:16:47.413Z,101018.38
2022-10-18T20:19:16.042Z,101019.38
2022-10-18T20:21:44.860Z,101028.41
2022-10-18T20:24:13.473Z,101027.88
2022-10-18T20:26:44.010Z,101028.53
2022-10-18T20:29:12.940Z,101026.47
2022-10-18T20:31:41.948Z,101028.03
2022-10-18T20:34:13.364Z,101032.38
2022-10-18T20:36:43.195Z,101026.88
2022-10-18T20:39:11.616Z,101030.53
2022-10-18T20:41:42.710Z,101030.38
2022-10-18T20:44:17.567Z,101031.22
2022-10-18T20:46:47.287Z,101031.22
2022-10-18T20:49:18.130Z,101030.22
2022-10-18T20:51:47.375Z,101033.06
2022-10-18T20:54:16.072Z,101028.88
2022-10-18T20:56:46.906Z,101020.03
2022-10-18T20:59:17.516Z,101025.19
2022-10-18T21:01:46.182Z,101026.88
2022-10-18T21:04:14.982Z,101018.69
2022-10-18T21:06:45.359Z,101027.53
2022-10-18T21:09:16.204Z,101027.53
2022-10-18T21:11:52.006Z,101029.22
2022-10-18T21:14:24.031Z,101022.88
2022-10-18T21:16:53.792Z,101024.09
2022-10-18T21:19:23.978Z,101022.91
2022-10-18T21:21:55.043Z,101015.06
2022-10-18T21:24:25.363Z,101022.06
2022-10-18T21:26:53.917Z,101019.88
2022-10-18T21:29:25.416Z,101028.56
2022-10-18T21:31:58.285Z,101017.38
2022-10-18T21:34:27.681Z,101021.03
2022-10-18T21:36:56.474Z,101021.19
2022-10-18T21:39:26.136Z,101014.78
2022-10-18T21:41:55.296Z,101012.75
2022-10-18T21:44:25.647Z,101014.44
2022-10-18T21:46:55.777Z,101012.75
2022-10-18T21:49:25.458Z,101020.78
2022-10-18T21:51:54.146Z,101015.06
2022-10-18T21:54:22.745Z,101014.75
2022-10-18T21:56:51.939Z,101014.38
2022-10-18T21:59:20.522Z,101015.00
2022-10-18T22:01:50.548Z,101014.66
2022-10-18T22:04:21.390Z,101000.75
2022-10-18T22:06:50.799Z,101011.44
2022-10-18T22:09:21.613Z,101010.06
2022-10-18T22:11:52.369Z,100997.53
2022-10-18T22:14:21.078Z,101001.69
2022-10-18T22:16:57.226Z,101008.72
2022-10-18T22:19:25.754Z,101004.56
2022-10-18T22:21:54.417Z,101001.88
2022-10-18T22:24:26.786Z,100998.19
2022-10-18T22:26:55.278Z,100996.81
2022-10-18T22:29:23.680Z,101000.16
2022-10-18T22:31:55.290Z,100997.84
2022-10-18T22:34:27.720Z,100983.63
2022-10-18T22:36:57.897Z,100994.19
2022-10-18T22:39:26.587Z,100996.50
2022-10-18T22:41:56.828Z,100992.81
2022-10-18T22:44:25.623Z,101003.06
2022-10-18T22:46:55.725Z,101002.41
2022-10-18T22:49:24.331Z,101001.00
2022-10-18T22:51:54.343Z,100999.63
2022-10-18T22:54:23.243Z,101004.38
2022-10-18T22:56:51.840Z,100998.56
2022-10-18T22:59:20.529Z,100994.28
2022-10-18T23:01:49.109Z,100989.63
2022-10-18T23:04:19.138Z,100999.78
2022-10-18T23:06:47.834Z,101000.56
2022-10-18T23:09:16.311Z,100989.88
2022-10-18T23:11:44.993Z,100994.72
2022-10-18T23:14:13.900Z,100998.50
2022-10-18T23:16:42.488Z,100983.09
2022-10-18T23:19:16.103Z,100990.41
2022-10-18T23:21:46.223Z,100990.31
2022-10-18T23:24:14.916Z,100981.53
2022-10-18T23:26:43.543Z,100983.34
2022-10-18T23:29:12.116Z,100987.53
2022-10-18T23:31:41.070Z,100983.19
2022-10-18T23:34:11.135Z,100976.69
2022-10-18T23:36:40.723Z,100972.69
2022-10-18T23:39:12.075Z,100972.69
2022-10-18T23:41:40.466Z,100980.69
2022-10-18T23:44:11.130Z,100976.19
2022-10-18T23:46:39.671Z,100971.16
2022-10-18T23:49:08.265Z,100964.31
2022-10-18T23:51:36.737Z,100974.59
2022-10-18T23:54:05.251Z,100977.31
2022-10-18T23:56:35.555Z,100971.56
2022-10-18T23:59:04.355Z,100980.72
